Time;durP1;ratioP1;P1;durP2;ratioP2;P2;SDS_P1;SDS_P2;PMS_P1;PMS_P2;Temp;Humidity;BMP_temperature;BMP_pressure;BME280_temperature;BME280_humidity;BME280_pressure;Samples;Min_cycle;Max_cycle;Signal;HPM_P1;HPM_P2
2021/08/17 00:00:40;;;;;;;5.28;1.35;;;19.50;70.20;;;;;;5045103;28;20025;-66
2021/08/17 00:03:05;;;;;;;5.80;1.40;;;19.50;70.20;;;;;;5045252;28;20074;-66
2021/08/17 00:05:31;;;;;;;3.13;1.20;;;19.50;70.80;;;;;;5042921;28;20497;-64
2021/08/17 00:07:56;;;;;;;3.10;1.05;;;19.50;70.30;;;;;;5043514;28;20037;-66
2021/08/17 00:10:23;;;;;;;5.30;1.08;;;19.50;70.20;;;;;;5044584;28;20124;-65
2021/08/17 00:12:49;;;;;;;5.88;1.42;;;19.40;70.20;;;;;;5044338;28;20036;-66
2021/08/17 00:15:14;;;;;;;5.35;1.30;;;19.40;70.30;;;;;;5045037;28;20543;-66
2021/08/17 00:17:40;;;;;;;4.25;1.20;;;19.40;70.40;;;;;;5043169;28;20115;-65
2021/08/17 00:20:06;;;;;;;5.38;1.30;;;19.40;70.50;;;;;;5043774;28;20032;-66
2021/08/17 00:22:34;;;;;;;5.35;1.27;;;19.40;70.40;;;;;;5044749;28;20087;-67
2021/08/17 00:24:59;;;;;;;5.03;1.38;;;19.40;70.60;;;;;;5028611;28;20037;-65
2021/08/17 00:27:25;;;;;;;5.93;1.50;;;19.40;70.70;;;;;;5039574;28;20091;-66
2021/08/17 00:29:51;;;;;;;6.20;1.85;;;19.40;70.70;;;;;;5043102;28;20460;-65
2021/08/17 00:32:16;;;;;;;5.82;1.42;;;19.40;70.60;;;;;;5043867;28;20025;-65
2021/08/17 00:34:42;;;;;;;4.28;1.20;;;19.40;70.60;;;;;;5042760;28;20375;-67
2021/08/17 00:37:07;;;;;;;4.25;1.17;;;19.40;70.60;;;;;;5044517;28;20568;-63
2021/08/17 00:39:35;;;;;;;5.30;1.48;;;19.40;70.50;;;;;;5044985;28;20044;-66
2021/08/17 00:42:03;;;;;;;7.13;1.73;;;19.40;70.60;;;;;;5042607;28;20025;-66
2021/08/17 00:44:29;;;;;;;4.80;1.40;;;19.40;70.70;;;;;;5044650;28;20389;-65
2021/08/17 00:46:56;;;;;;;6.00;1.38;;;19.40;70.70;;;;;;5043228;28;20037;-65
2021/08/17 00:49:25;;;;;;;8.15;1.83;;;19.40;71.20;;;;;;5042495;28;20159;-63
2021/08/17 00:51:55;;;;;;;5.65;1.30;;;19.30;70.70;;;;;;5044195;28;20040;-64
2021/08/17 00:54:21;;;;;;;5.72;1.55;;;19.40;70.70;;;;;;5043221;28;20061;-67
2021/08/17 00:56:48;;;;;;;5.53;1.30;;;19.30;70.60;;;;;;5044057;28;20021;-67
2021/08/17 00:59:14;;;;;;;4.88;1.48;;;19.40;70.80;;;;;;5043504;28;20044;-67
2021/08/17 01:01:40;;;;;;;5.20;1.80;;;19.40;70.80;;;;;;5044097;28;20079;-64
2021/08/17 01:04:10;;;;;;;4.93;1.30;;;19.30;70.80;;;;;;5042546;28;20029;-65
2021/08/17 01:06:37;;;;;;;6.95;1.75;;;19.30;70.70;;;;;;5044392;28;20037;-65
2021/08/17 01:09:05;;;;;;;6.28;1.73;;;19.30;70.80;;;;;;5043190;28;20053;-66
2021/08/17 01:11:30;;;;;;;8.75;1.27;;;19.30;70.90;;;;;;5042032;28;20029;-62
2021/08/17 01:13:56;;;;;;;5.32;1.48;;;19.30;70.80;;;;;;5044466;28;20033;-65
2021/08/17 01:16:22;;;;;;;6.13;1.65;;;19.30;70.90;;;;;;5042577;28;20262;-65
2021/08/17 01:18:48;;;;;;;5.97;1.48;;;19.30;70.90;;;;;;5044038;28;20521;-64
2021/08/17 01:21:16;;;;;;;5.82;1.50;;;19.30;70.90;;;;;;5044071;28;20029;-63
2021/08/17 01:23:42;;;;;;;4.78;1.08;;;19.30;70.90;;;;;;5042989;28;20029;-66
2021/08/17 01:26:08;;;;;;;7.68;1.50;;;19.30;70.90;;;;;;5037083;28;20501;-64
2021/08/17 01:28:33;;;;;;;3.97;1.27;;;19.30;70.80;;;;;;5024343;28;20041;-65
2021/08/17 01:31:06;;;;;;;6.38;1.48;;;19.30;70.70;;;;;;5024427;28;20492;-64
2021/08/17 01:33:33;;;;;;;7.65;1.52;;;19.20;70.80;;;;;;5027506;28;20028;-65
2021/08/17 01:36:00;;;;;;;6.80;1.50;;;19.30;70.90;;;;;;5027579;28;20116;-67
2021/08/17 01:38:26;;;;;;;6.18;1.42;;;19.20;70.90;;;;;;5027793;28;20021;-65
2021/08/17 01:40:51;;;;;;;5.25;1.40;;;19.30;71.00;;;;;;5025866;28;20040;-67
2021/08/17 01:43:17;;;;;;;4.57;1.33;;;19.20;70.90;;;;;;5026338;28;20033;-65
2021/08/17 01:46:02;;;;;;;5.13;1.55;;;19.20;70.90;;;;;;5026102;28;20033;-66
2021/08/17 01:48:29;;;;;;;5.63;1.33;;;19.20;70.90;;;;;;5027278;28;20049;-66
2021/08/17 01:50:55;;;;;;;5.43;1.42;;;19.20;70.90;;;;;;5026021;28;20491;-63
2021/08/17 01:53:28;;;;;;;4.25;1.40;;;19.20;71.00;;;;;;5026146;28;20025;-66
2021/08/17 01:55:54;;;;;;;3.70;1.45;;;19.20;71.00;;;;;;5025966;28;20382;-65
2021/08/17 01:58:22;;;;;;;4.50;1.38;;;19.20;71.00;;;;;;5027665;28;20033;-65
2021/08/17 02:00:47;;;;;;;5.00;1.45;;;19.20;71.10;;;;;;5027318;28;20026;-64
2021/08/17 02:03:13;;;;;;;6.03;1.92;;;19.20;71.00;;;;;;5027076;28;20037;-65
2021/08/17 02:05:38;;;;;;;6.13;1.38;;;19.20;71.00;;;;;;5026031;28;20022;-66
2021/08/17 02:08:05;;;;;;;6.22;1.38;;;19.30;70.90;;;;;;5025999;28;20797;-66
2021/08/17 02:10:31;;;;;;;4.55;1.45;;;19.20;71.00;;;;;;5024928;28;20041;-65
2021/08/17 02:12:57;;;;;;;5.80;1.55;;;19.20;71.00;;;;;;5027259;28;20061;-66
2021/08/17 02:15:22;;;;;;;6.22;1.50;;;19.20;71.00;;;;;;5027385;28;20484;-66
2021/08/17 02:17:48;;;;;;;4.47;1.50;;;19.20;70.80;;;;;;5026622;28;20083;-67
2021/08/17 02:20:14;;;;;;;5.72;1.77;;;19.20;70.90;;;;;;5027056;28;20399;-65
2021/08/17 02:22:39;;;;;;;5.13;1.40;;;19.20;70.90;;;;;;5026981;28;20028;-65
2021/08/17 02:25:06;;;;;;;5.82;1.35;;;19.20;70.80;;;;;;5026654;28;20550;-66
2021/08/17 02:27:33;;;;;;;6.35;1.58;;;19.20;70.90;;;;;;5044695;28;20505;-65
2021/08/17 02:29:59;;;;;;;5.35;1.40;;;19.20;70.90;;;;;;5046723;28;20116;-64
2021/08/17 02:32:24;;;;;;;4.70;1.35;;;19.20;70.80;;;;;;5044774;28;20123;-65
2021/08/17 02:34:50;;;;;;;5.07;1.50;;;19.20;70.80;;;;;;5046920;28;20032;-66
2021/08/17 02:37:15;;;;;;;7.97;1.70;;;19.20;70.90;;;;;;5045055;28;20045;-65
2021/08/17 02:39:41;;;;;;;3.97;1.35;;;19.10;70.60;;;;;;5039948;28;20422;-66
2021/08/17 02:42:06;;;;;;;5.90;1.67;;;19.20;70.70;;;;;;5039137;28;20052;-64
2021/08/17 02:44:32;;;;;;;5.88;1.40;;;19.20;70.70;;;;;;5046414;28;20029;-65
2021/08/17 02:46:57;;;;;;;6.20;1.60;;;19.10;70.60;;;;;;5045843;28;20029;-64
2021/08/17 02:49:23;;;;;;;7.82;1.83;;;19.10;70.70;;;;;;5046549;28;20033;-67
2021/08/17 02:51:48;;;;;;;5.60;1.50;;;19.10;70.70;;;;;;5045468;28;20036;-64
2021/08/17 02:54:14;;;;;;;5.47;1.30;;;19.10;70.70;;;;;;5046056;28;20059;-65
2021/08/17 02:56:39;;;;;;;4.65;1.40;;;19.10;70.60;;;;;;5046274;28;20500;-66
2021/08/17 02:59:05;;;;;;;7.57;1.70;;;19.10;70.60;;;;;;5046341;28;20029;-65
2021/08/17 03:01:30;;;;;;;4.57;1.45;;;19.10;71.00;;;;;;5045617;28;20045;-64
2021/08/17 03:03:56;;;;;;;5.60;1.50;;;19.10;70.70;;;;;;5044740;28;20128;-65
2021/08/17 03:06:21;;;;;;;4.03;1.48;;;19.10;70.60;;;;;;5046268;28;20025;-67
2021/08/17 03:08:47;;;;;;;5.38;1.30;;;19.10;70.70;;;;;;5045669;28;20029;-62
2021/08/17 03:11:12;;;;;;;6.55;1.65;;;19.10;70.70;;;;;;5045723;28;20060;-66
2021/08/17 03:13:38;;;;;;;5.70;1.65;;;19.10;70.40;;;;;;5044450;28;20033;-63
2021/08/17 03:16:04;;;;;;;5.53;1.30;;;19.10;70.60;;;;;;5045739;28;20087;-66
2021/08/17 03:18:29;;;;;;;4.63;1.38;;;19.10;70.50;;;;;;5044499;28;20896;-64
2021/08/17 03:20:58;;;;;;;6.40;1.50;;;19.10;70.60;;;;;;5045326;28;20025;-64
2021/08/17 03:23:26;;;;;;;4.78;1.30;;;19.10;70.60;;;;;;5044158;28;20421;-65
2021/08/17 03:25:52;;;;;;;6.05;1.30;;;19.10;70.50;;;;;;5044069;28;20025;-64
2021/08/17 03:28:18;;;;;;;6.03;1.38;;;19.10;70.50;;;;;;5045940;28;20060;-65
2021/08/17 03:30:43;;;;;;;7.65;1.35;;;19.00;70.60;;;;;;5043761;28;20434;-64
2021/08/17 03:33:09;;;;;;;4.35;1.20;;;19.10;70.50;;;;;;5044899;28;20036;-65
2021/08/17 03:35:34;;;;;;;5.32;1.92;;;19.00;70.60;;;;;;5044295;28;20102;-65
2021/08/17 03:38:00;;;;;;;4.28;1.30;;;19.10;70.60;;;;;;5045452;28;20032;-65
2021/08/17 03:40:26;;;;;;;5.05;1.42;;;19.00;70.40;;;;;;5044884;28;20040;-65
2021/08/17 03:42:51;;;;;;;5.82;1.60;;;19.00;70.50;;;;;;5045086;28;20100;-64
2021/08/17 03:45:19;;;;;;;6.53;1.58;;;19.00;70.50;;;;;;5045457;28;20298;-67
2021/08/17 03:47:45;;;;;;;6.47;1.30;;;19.00;70.40;;;;;;5043462;28;20449;-66
2021/08/17 03:50:13;;;;;;;5.25;1.52;;;19.00;70.30;;;;;;5043907;28;20037;-66
2021/08/17 03:52:40;;;;;;;7.82;1.30;;;19.00;70.50;;;;;;5043852;28;20119;-65
2021/08/17 03:55:06;;;;;;;5.57;1.60;;;19.00;70.50;;;;;;5044066;28;20028;-64
2021/08/17 03:57:32;;;;;;;7.20;1.70;;;19.00;70.40;;;;;;5043911;28;20025;-67
2021/08/17 03:59:57;;;;;;;7.05;1.70;;;19.00;70.40;;;;;;5043763;28;20475;-66
2021/08/17 04:02:23;;;;;;;6.22;1.60;;;19.00;70.20;;;;;;5043244;28;20036;-65
2021/08/17 04:04:49;;;;;;;4.63;1.33;;;19.00;70.30;;;;;;5044819;28;20112;-65
2021/08/17 04:07:15;;;;;;;4.07;1.30;;;19.00;70.20;;;;;;5043768;28;20029;-65
2021/08/17 04:09:40;;;;;;;5.53;1.50;;;19.00;70.30;;;;;;5044494;28;20041;-67
2021/08/17 04:12:06;;;;;;;5.85;1.52;;;19.00;70.30;;;;;;5044675;28;20041;-66
2021/08/17 04:14:33;;;;;;;7.63;1.70;;;19.00;70.30;;;;;;5043387;28;20055;-66
2021/08/17 04:16:58;;;;;;;5.95;1.60;;;19.00;70.40;;;;;;5044421;28;20055;-65
2021/08/17 04:19:25;;;;;;;5.88;1.33;;;19.00;70.30;;;;;;5044844;28;20127;-63
2021/08/17 04:21:51;;;;;;;7.68;1.45;;;19.00;70.40;;;;;;5044757;28;20124;-66
2021/08/17 04:24:17;;;;;;;6.13;1.60;;;19.00;70.30;;;;;;5042963;28;20029;-64
2021/08/17 04:26:43;;;;;;;5.45;1.40;;;19.00;70.20;;;;;;5032237;28;20045;-66
2021/08/17 04:29:09;;;;;;;4.93;1.20;;;19.00;70.30;;;;;;5024949;28;20029;-66
2021/08/17 04:31:36;;;;;;;5.68;1.25;;;19.00;70.30;;;;;;5024163;28;20026;-64
2021/08/17 04:34:01;;;;;;;7.07;1.40;;;19.00;70.20;;;;;;5024639;28;20029;-64
2021/08/17 04:36:27;;;;;;;7.50;1.42;;;18.90;70.30;;;;;;5024717;28;20025;-66
2021/08/17 04:38:52;;;;;;;5.70;1.23;;;18.90;70.20;;;;;;5023291;28;20026;-64
2021/08/17 04:41:18;;;;;;;5.22;1.58;;;18.90;70.20;;;;;;5030091;28;20842;-65
2021/08/17 04:43:45;;;;;;;5.40;1.40;;;19.00;70.20;;;;;;5042789;28;20108;-66
2021/08/17 04:46:11;;;;;;;5.57;1.63;;;18.90;70.20;;;;;;5044194;28;20028;-65
2021/08/17 04:48:36;;;;;;;6.55;1.48;;;18.90;70.20;;;;;;5040798;28;20029;-64
2021/08/17 04:51:02;;;;;;;6.90;1.40;;;18.90;70.10;;;;;;5038363;28;20485;-65
2021/08/17 04:53:27;;;;;;;7.05;1.63;;;18.90;70.20;;;;;;5038940;28;20407;-66
2021/08/17 04:55:53;;;;;;;5.13;1.42;;;19.00;70.10;;;;;;5033847;28;20502;-66
2021/08/17 04:58:19;;;;;;;7.30;1.90;;;18.90;68.50;;;;;;5034273;28;20037;-66
2021/08/17 05:00:47;;;;;;;7.63;2.22;;;18.90;67.90;;;;;;5029905;28;20041;-64
2021/08/17 05:03:13;;;;;;;7.47;2.13;;;18.90;68.80;;;;;;5030224;28;20034;-66
2021/08/17 05:05:38;;;;;;;16.80;2.20;;;18.90;69.90;;;;;;5030540;28;20044;-67
2021/08/17 05:08:08;;;;;;;9.60;2.47;;;19.00;69.80;;;;;;5044353;28;20036;-66
2021/08/17 05:10:34;;;;;;;7.60;2.08;;;19.00;69.80;;;;;;5031512;28;20155;-65
2021/08/17 05:13:02;;;;;;;7.28;1.85;;;19.00;70.20;;;;;;5035564;28;20676;-65
2021/08/17 05:15:27;;;;;;;7.78;1.92;;;19.10;70.60;;;;;;5034043;28;20099;-66
2021/08/17 05:17:53;;;;;;;6.63;1.77;;;19.10;70.80;;;;;;5038653;28;20724;-66
2021/08/17 05:20:19;;;;;;;11.95;1.80;;;19.10;70.90;;;;;;5045785;28;20025;-66
2021/08/17 05:22:45;;;;;;;10.68;2.20;;;19.10;71.50;;;;;;5044000;28;20028;-68
2021/08/17 05:25:12;;;;;;;10.77;1.73;;;19.20;72.30;;;;;;5047335;28;20127;-68
2021/08/17 05:27:37;;;;;;;9.65;1.92;;;19.20;72.50;;;;;;5031734;28;20021;-68
2021/08/17 05:30:05;;;;;;;11.93;1.80;;;19.20;72.00;;;;;;5044385;28;20040;-67
2021/08/17 05:32:31;;;;;;;11.50;1.70;;;19.30;71.90;;;;;;5051460;28;20410;-67
2021/08/17 05:34:56;;;;;;;8.95;1.48;;;19.40;71.70;;;;;;5067566;28;20035;-67
2021/08/17 05:37:22;;;;;;;11.93;2.22;;;19.40;71.20;;;;;;5047197;28;20025;-69
2021/08/17 05:39:48;;;;;;;8.55;1.50;;;19.40;71.40;;;;;;5039977;28;20017;-66
2021/08/17 05:42:14;;;;;;;11.10;1.40;;;19.50;71.10;;;;;;5031884;28;20030;-65
2021/08/17 05:44:42;;;;;;;7.40;1.70;;;19.60;70.60;;;;;;5028478;28;20033;-66
2021/08/17 05:47:08;;;;;;;12.18;1.75;;;19.60;70.00;;;;;;5034527;28;20171;-64
2021/08/17 05:49:36;;;;;;;7.15;1.52;;;19.60;70.10;;;;;;5040689;28;20116;-63
2021/08/17 05:52:03;;;;;;;7.35;1.52;;;19.50;70.40;;;;;;5045570;28;20032;-66
2021/08/17 05:54:29;;;;;;;8.43;1.73;;;19.50;70.50;;;;;;5046215;28;20025;-65
2021/08/17 05:56:58;;;;;;;6.97;1.50;;;19.50;70.40;;;;;;5046202;28;20028;-67
2021/08/17 05:59:25;;;;;;;5.88;1.45;;;19.50;70.10;;;;;;5046421;28;20032;-65
2021/08/17 06:01:51;;;;;;;7.15;1.52;;;19.60;69.60;;;;;;5045772;28;20070;-63
2021/08/17 06:04:17;;;;;;;10.43;1.70;;;19.70;69.40;;;;;;5046199;28;20025;-65
2021/08/17 06:06:43;;;;;;;9.32;1.60;;;19.80;69.00;;;;;;5033536;28;20097;-63
2021/08/17 06:09:09;;;;;;;8.38;2.28;;;19.90;68.50;;;;;;5027345;28;20056;-67
2021/08/17 06:11:35;;;;;;;9.07;2.05;;;20.00;68.30;;;;;;5032453;28;20033;-67
2021/08/17 06:14:01;;;;;;;8.10;1.40;;;20.10;68.10;;;;;;5035005;28;20399;-67
2021/08/17 06:16:26;;;;;;;9.93;2.00;;;20.20;67.80;;;;;;5046564;28;20036;-71
2021/08/17 06:18:52;;;;;;;6.20;1.65;;;20.20;66.80;;;;;;5045948;28;20174;-69
2021/08/17 06:21:18;;;;;;;8.77;1.80;;;20.30;66.80;;;;;;5039632;28;20036;-69
2021/08/17 06:23:43;;;;;;;7.78;1.90;;;20.40;66.70;;;;;;5031030;28;20030;-65
2021/08/17 06:26:09;;;;;;;6.32;1.63;;;20.40;66.60;;;;;;5025975;28;20090;-65
2021/08/17 06:28:35;;;;;;;7.40;1.80;;;20.40;66.20;;;;;;5025784;28;20029;-65
2021/08/17 06:31:00;;;;;;;5.97;1.27;;;20.50;66.20;;;;;;5025401;28;20029;-64
2021/08/17 06:33:26;;;;;;;8.75;1.60;;;20.40;66.10;;;;;;5025589;28;20448;-66
2021/08/17 06:35:51;;;;;;;6.68;1.70;;;20.30;66.50;;;;;;5025708;28;20190;-65
2021/08/17 06:38:17;;;;;;;7.30;1.60;;;20.40;66.30;;;;;;5025797;28;20036;-64
2021/08/17 06:40:43;;;;;;;7.82;1.50;;;20.50;65.70;;;;;;5026814;28;20038;-66
2021/08/17 06:43:08;;;;;;;5.20;1.40;;;20.70;65.40;;;;;;5025511;28;20387;-66
2021/08/17 06:45:34;;;;;;;6.30;1.50;;;20.80;65.00;;;;;;5025566;28;20029;-65
2021/08/17 06:48:00;;;;;;;5.82;1.50;;;20.90;64.70;;;;;;5025446;28;20509;-66
2021/08/17 06:50:25;;;;;;;5.35;1.60;;;21.00;64.40;;;;;;5024980;28;20100;-66
2021/08/17 06:52:51;;;;;;;5.20;1.45;;;21.00;64.40;;;;;;5026742;28;20498;-66
2021/08/17 06:55:16;;;;;;;5.40;1.40;;;21.00;64.00;;;;;;5026814;28;20034;-65
2021/08/17 06:57:42;;;;;;;5.75;1.33;;;21.00;64.00;;;;;;5026799;28;20075;-65
2021/08/17 07:00:10;;;;;;;4.90;1.33;;;21.10;63.90;;;;;;5026021;28;20025;-64
2021/08/17 07:02:37;;;;;;;7.72;1.90;;;21.20;63.50;;;;;;5025061;28;20040;-65
2021/08/17 07:05:04;;;;;;;5.00;1.70;;;21.20;63.50;;;;;;5025390;28;20032;-65
2021/08/17 07:07:30;;;;;;;4.82;1.50;;;21.30;63.30;;;;;;5025260;28;20039;-66
2021/08/17 07:09:56;;;;;;;5.45;1.40;;;21.30;63.20;;;;;;5024674;28;20025;-65
2021/08/17 07:12:21;;;;;;;6.18;1.67;;;21.30;63.00;;;;;;5025878;28;20029;-63
2021/08/17 07:14:47;;;;;;;6.97;1.75;;;21.30;62.90;;;;;;5025038;28;20029;-64
2021/08/17 07:17:13;;;;;;;5.88;1.70;;;21.30;63.00;;;;;;5024609;28;20394;-64
2021/08/17 07:19:38;;;;;;;4.15;1.48;;;21.30;63.00;;;;;;5024836;28;20033;-65
2021/08/17 07:22:04;;;;;;;4.57;1.48;;;21.40;62.70;;;;;;5024320;28;20303;-63
2021/08/17 07:24:30;;;;;;;6.38;1.50;;;21.40;62.00;;;;;;5024859;28;20705;-63
2021/08/17 07:26:56;;;;;;;4.68;1.50;;;21.50;62.20;;;;;;5024686;28;20036;-68
2021/08/17 07:29:22;;;;;;;4.38;1.35;;;21.50;62.20;;;;;;5025027;28;20057;-65
2021/08/17 07:31:49;;;;;;;4.97;1.55;;;21.50;62.30;;;;;;5024149;28;20025;-64
2021/08/17 07:34:15;;;;;;;4.68;1.30;;;21.40;62.40;;;;;;5024673;28;20376;-64
2021/08/17 07:36:41;;;;;;;4.93;1.40;;;21.40;62.40;;;;;;5024556;28;20040;-66
2021/08/17 07:39:09;;;;;;;5.50;1.60;;;21.40;62.60;;;;;;5024504;28;20096;-65
2021/08/17 07:41:36;;;;;;;6.60;2.22;;;21.50;62.40;;;;;;5024222;28;20052;-64
2021/08/17 07:44:02;;;;;;;4.68;1.40;;;21.40;62.50;;;;;;5024986;28;20447;-66
2021/08/17 07:46:28;;;;;;;6.28;1.50;;;21.40;62.50;;;;;;5026367;28;20033;-65
2021/08/17 07:48:54;;;;;;;6.35;1.77;;;21.40;62.30;;;;;;5027800;28;20036;-66
2021/08/17 07:51:20;;;;;;;5.32;2.08;;;21.40;62.40;;;;;;5031107;28;20541;-68
2021/08/17 07:53:46;;;;;;;6.32;2.00;;;21.40;62.30;;;;;;5035221;28;20041;-65
2021/08/17 07:56:11;;;;;;;6.00;2.08;;;21.30;62.60;;;;;;5031540;28;20533;-67
2021/08/17 07:58:37;;;;;;;5.65;1.75;;;21.30;62.90;;;;;;5039828;28;20021;-66
2021/08/17 08:01:03;;;;;;;5.78;1.50;;;21.30;62.50;;;;;;5034925;28;20064;-72
2021/08/17 08:03:28;;;;;;;4.90;1.77;;;21.30;62.90;;;;;;5029122;28;20232;-71
2021/08/17 08:05:54;;;;;;;6.75;1.90;;;21.30;63.00;;;;;;5034500;28;20022;-70
2021/08/17 08:08:20;;;;;;;4.78;1.60;;;21.30;63.00;;;;;;5027739;28;20029;-65
2021/08/17 08:10:45;;;;;;;7.60;1.73;;;21.20;63.10;;;;;;5030143;28;20056;-65
2021/08/17 08:13:11;;;;;;;7.72;1.77;;;21.20;63.20;;;;;;5041883;28;20025;-65
2021/08/17 08:15:37;;;;;;;5.57;1.70;;;21.20;63.20;;;;;;5035367;28;20075;-68
2021/08/17 08:18:03;;;;;;;5.53;1.50;;;21.20;63.40;;;;;;5032232;28;20116;-66
2021/08/17 08:20:28;;;;;;;5.15;1.67;;;21.20;63.20;;;;;;5025369;28;20385;-64
2021/08/17 08:22:54;;;;;;;5.03;2.00;;;21.20;63.20;;;;;;5024122;28;20029;-66
2021/08/17 08:25:20;;;;;;;8.68;1.90;;;21.20;63.20;;;;;;5039286;28;20040;-64
2021/08/17 08:27:46;;;;;;;4.90;1.50;;;21.20;63.10;;;;;;5024750;28;20037;-66
2021/08/17 08:30:12;;;;;;;4.55;1.55;;;21.20;63.10;;;;;;5044267;28;20044;-67
2021/08/17 08:32:39;;;;;;;4.88;1.73;;;21.30;63.10;;;;;;5044979;28;20025;-66
2021/08/17 08:35:06;;;;;;;6.13;1.70;;;21.30;63.10;;;;;;5027162;28;20030;-67
2021/08/17 08:37:31;;;;;;;4.88;1.80;;;21.30;62.90;;;;;;5025235;28;20394;-66
2021/08/17 08:39:57;;;;;;;5.13;1.63;;;21.30;63.00;;;;;;5036836;28;20028;-64
2021/08/17 08:42:24;;;;;;;4.30;1.40;;;21.30;62.80;;;;;;5035159;28;20107;-63
2021/08/17 08:44:51;;;;;;;3.47;1.52;;;21.30;63.00;;;;;;5047607;28;20055;-65
2021/08/17 08:47:18;;;;;;;5.35;1.55;;;21.30;63.00;;;;;;5043041;28;20414;-66
2021/08/17 08:49:47;;;;;;;6.57;1.85;;;21.30;63.00;;;;;;5029419;28;20034;-66
2021/08/17 08:52:12;;;;;;;4.55;1.80;;;21.30;63.10;;;;;;5031476;28;20036;-64
2021/08/17 08:54:38;;;;;;;4.55;1.65;;;21.40;63.00;;;;;;5040531;28;20030;-67
2021/08/17 08:57:04;;;;;;;4.13;1.60;;;21.40;62.80;;;;;;5030076;28;20108;-64
2021/08/17 08:59:30;;;;;;;3.75;1.50;;;21.50;62.60;;;;;;5045168;28;20458;-67
2021/08/17 09:02:10;;;;;;;6.25;2.00;;;21.50;62.40;;;;;;5027419;28;20068;-66
2021/08/17 09:04:36;;;;;;;4.32;1.67;;;21.50;62.50;;;;;;5034568;28;20036;-66
2021/08/17 09:07:02;;;;;;;5.05;1.80;;;21.40;62.50;;;;;;5043560;28;20032;-66
2021/08/17 09:09:29;;;;;;;4.90;1.75;;;21.40;62.50;;;;;;5048670;28;20021;-66
2021/08/17 09:11:57;;;;;;;5.55;2.00;;;21.40;62.70;;;;;;5037410;28;20403;-67
2021/08/17 09:14:31;;;;;;;4.05;1.50;;;21.50;62.60;;;;;;5027423;28;20052;-66
2021/08/17 09:17:01;;;;;;;3.75;1.63;;;21.50;62.30;;;;;;5037431;28;20111;-67
2021/08/17 09:19:43;;;;;;;4.78;1.83;;;21.70;62.20;;;;;;5040886;28;20037;-66
2021/08/17 09:22:19;;;;;;;4.80;1.60;;;21.60;62.00;;;;;;5027973;28;20191;-64
2021/08/17 09:24:47;;;;;;;4.70;1.92;;;21.70;62.00;;;;;;5032505;28;20036;-66
2021/08/17 09:27:18;;;;;;;5.25;1.90;;;21.70;61.90;;;;;;5047204;28;20044;-66
2021/08/17 09:29:46;;;;;;;4.72;1.77;;;21.60;62.00;;;;;;5043135;28;20021;-67
2021/08/17 09:32:26;;;;;;;6.75;2.25;;;21.50;62.10;;;;;;5027839;28;20033;-64
2021/08/17 09:34:54;;;;;;;6.88;2.38;;;21.50;62.20;;;;;;5031677;28;20024;-65
2021/08/17 09:37:20;;;;;;;4.95;2.00;;;21.40;62.50;;;;;;5041575;28;20025;-65
2021/08/17 09:39:49;;;;;;;5.75;2.08;;;21.40;62.60;;;;;;5031657;28;20032;-65
2021/08/17 09:42:27;;;;;;;5.15;2.13;;;21.40;62.70;;;;;;5047268;28;20094;-67
2021/08/17 09:45:14;;;;;;;5.57;2.30;;;21.40;62.70;;;;;;5044161;28;20021;-66
2021/08/17 09:47:43;;;;;;;6.80;2.28;;;21.30;62.80;;;;;;5026894;28;20083;-67
2021/08/17 09:50:17;;;;;;;4.80;1.98;;;21.30;62.80;;;;;;5027520;28;20429;-66
2021/08/17 09:52:42;;;;;;;6.18;2.10;;;21.30;63.00;;;;;;5027216;28;20079;-65
2021/08/17 09:55:21;;;;;;;5.68;2.20;;;21.30;63.00;;;;;;5036954;28;20025;-64
2021/08/17 09:57:48;;;;;;;5.25;2.40;;;21.30;63.00;;;;;;5050241;28;20033;-65
2021/08/17 10:00:15;;;;;;;6.15;2.22;;;21.30;63.10;;;;;;5034824;28;20033;-63
2021/08/17 10:02:46;;;;;;;7.07;2.67;;;21.30;63.20;;;;;;5033714;28;20029;-66
2021/08/17 10:05:14;;;;;;;7.60;2.22;;;21.30;63.30;;;;;;5032978;28;20106;-64
2021/08/17 10:07:42;;;;;;;8.90;2.55;;;21.30;63.30;;;;;;5032243;28;20518;-67
2021/08/17 10:10:09;;;;;;;8.35;2.97;;;21.30;63.40;;;;;;5032464;28;20387;-66
2021/08/17 10:12:36;;;;;;;8.93;2.70;;;21.30;63.70;;;;;;5034386;28;20036;-66
2021/08/17 10:15:04;;;;;;;9.25;2.78;;;21.30;63.60;;;;;;5031925;28;20054;-65
2021/08/17 10:17:30;;;;;;;7.50;2.83;;;21.30;63.60;;;;;;5030980;28;20371;-65
2021/08/17 10:19:56;;;;;;;7.88;3.13;;;21.30;63.50;;;;;;5036301;28;20021;-65
2021/08/17 10:22:22;;;;;;;7.43;2.85;;;21.40;63.60;;;;;;5037630;28;20059;-67
2021/08/17 10:24:49;;;;;;;6.22;2.80;;;21.40;63.60;;;;;;5034546;28;20034;-69
2021/08/17 10:27:20;;;;;;;7.07;2.88;;;21.50;63.30;;;;;;5041635;28;20028;-66
2021/08/17 10:29:52;;;;;;;;;;;21.40;63.20;;;;;;5030143;28;20577;-68
2021/08/17 10:32:41;;;;;;;7.90;2.97;;;21.50;63.40;;;;;;5035725;28;19970;-66
2021/08/17 10:38:09;;;;;;;9.40;4.13;;;21.60;63.00;;;;;;5030300;28;20044;-68
2021/08/17 10:40:50;;;;;;;8.60;2.80;;;21.70;62.90;;;;;;5036494;28;20091;-68
2021/08/17 10:43:20;;;;;;;8.65;2.88;;;21.60;63.10;;;;;;5030929;28;20037;-64
2021/08/17 10:45:51;;;;;;;7.95;3.10;;;21.50;63.10;;;;;;5042132;28;20037;-67
2021/08/17 10:48:51;;;;;;;9.60;3.67;;;21.50;63.50;;;;;;5029611;28;20083;-70
2021/08/17 10:51:22;;;;;;;8.45;3.60;;;21.40;63.50;;;;;;5044493;28;20029;-68
2021/08/17 10:54:03;;;;;;;8.15;3.67;;;21.40;63.60;;;;;;5035441;28;20148;-64
2021/08/17 10:56:34;;;;;;;10.25;3.25;;;21.30;63.70;;;;;;5039311;28;20513;-66
2021/08/17 10:59:00;;;;;;;10.98;3.55;;;21.30;63.90;;;;;;5046378;28;20029;-68
2021/08/17 11:01:35;;;;;;;8.68;3.50;;;21.30;64.00;;;;;;5044623;28;20025;-66
2021/08/17 11:04:02;;;;;;;10.15;3.65;;;21.30;63.90;;;;;;5046833;28;20099;-65
2021/08/17 11:06:47;;;;;;;7.30;3.35;;;21.40;63.80;;;;;;5046413;28;20039;-65
2021/08/17 11:09:30;;;;;;;8.93;3.80;;;21.30;63.70;;;;;;5045094;28;20033;-68
2021/08/17 11:12:06;;;;;;;10.18;4.47;;;21.30;63.80;;;;;;5043880;28;20041;-67
2021/08/17 11:14:34;;;;;;;11.63;5.00;;;21.30;63.90;;;;;;5043995;28;20084;-66
2021/08/17 11:17:19;;;;;;;13.73;6.60;;;21.30;64.00;;;;;;5044948;28;20036;-67
2021/08/17 11:19:48;;;;;;;15.77;5.90;;;21.30;64.10;;;;;;5046817;28;20031;-64
2021/08/17 11:22:17;;;;;;;15.82;6.18;;;21.20;64.20;;;;;;5031173;28;20029;-67
2021/08/17 11:24:55;;;;;;;15.10;6.35;;;21.30;64.30;;;;;;5046050;28;20021;-66
2021/08/17 11:27:44;;;;;;;13.38;5.63;;;21.30;64.20;;;;;;5037754;28;20044;-67
2021/08/17 11:30:13;;;;;;;12.20;5.53;;;21.30;64.20;;;;;;5026286;28;20083;-66
2021/08/17 11:32:44;;;;;;;14.60;4.90;;;21.30;64.20;;;;;;5026170;28;20072;-65
2021/08/17 11:35:09;;;;;;;;;;;21.30;64.30;;;;;;5025287;28;20038;-67
2021/08/17 11:37:38;;;;;;;13.13;5.60;;;21.20;64.40;;;;;;5023454;28;19920;-68
2021/08/17 11:40:07;;;;;;;10.95;5.28;;;21.30;64.40;;;;;;5023264;28;20025;-67
2021/08/17 11:42:35;;;;;;;13.00;5.32;;;21.20;64.30;;;;;;5024729;28;20042;-68
2021/08/17 11:45:08;;;;;;;12.27;5.78;;;21.20;64.40;;;;;;5025903;28;20485;-65
2021/08/17 11:47:35;;;;;;;14.38;6.28;;;21.20;64.40;;;;;;5024531;28;20037;-66
2021/08/17 11:50:06;;;;;;;12.73;5.72;;;21.20;64.40;;;;;;5024565;28;20029;-67
2021/08/17 11:52:46;;;;;;;11.45;4.80;;;21.20;64.50;;;;;;5025890;28;20112;-68
2021/08/17 11:55:23;;;;;;;13.15;5.60;;;21.20;64.40;;;;;;5025841;28;20385;-67
2021/08/17 11:57:53;;;;;;;10.32;5.13;;;21.20;64.40;;;;;;5026152;28;20494;-68
2021/08/17 12:00:21;;;;;;;12.43;6.15;;;21.20;64.50;;;;;;5025608;28;20028;-67
2021/08/17 12:02:52;;;;;;;11.27;6.20;;;21.10;64.50;;;;;;5025390;28;20036;-67
2021/08/17 12:05:21;;;;;;;11.20;5.70;;;21.10;64.70;;;;;;5024075;28;20148;-65
2021/08/17 12:07:52;;;;;;;10.38;5.45;;;21.10;64.60;;;;;;5024249;28;20029;-69
2021/08/17 12:10:21;;;;;;;11.80;5.57;;;21.10;64.80;;;;;;5025001;28;20029;-70
2021/08/17 12:13:09;;;;;;;12.35;6.13;;;21.10;64.90;;;;;;5025473;28;20064;-67
2021/08/17 12:15:56;;;;;;;11.82;6.28;;;21.10;64.80;;;;;;5025023;28;20035;-68
2021/08/17 12:18:26;;;;;;;12.63;5.57;;;21.20;64.80;;;;;;5025471;28;20021;-68
2021/08/17 12:20:58;;;;;;;12.43;5.80;;;21.20;64.70;;;;;;5023691;28;20025;-68
2021/08/17 12:23:43;;;;;;;10.90;5.28;;;21.20;64.60;;;;;;5025425;28;20084;-68
2021/08/17 12:26:27;;;;;;;11.57;5.90;;;21.20;64.50;;;;;;5024290;28;20502;-67
2021/08/17 12:28:54;;;;;;;11.07;5.82;;;21.20;64.40;;;;;;5023702;28;20056;-68
2021/08/17 12:31:33;;;;;;;11.90;6.30;;;21.20;64.60;;;;;;5025476;28;20037;-69
2021/08/17 12:34:00;;;;;;;10.30;5.60;;;21.20;64.80;;;;;;5025602;28;20560;-68
2021/08/17 12:36:41;;;;;;;12.32;6.30;;;21.10;64.70;;;;;;5023860;28;20030;-67
2021/08/17 12:39:10;;;;;;;11.70;5.45;;;21.10;64.80;;;;;;5025025;28;20064;-67
2021/08/17 12:41:38;;;;;;;10.38;5.60;;;21.10;65.00;;;;;;5032938;28;20108;-68
2021/08/17 12:44:14;;;;;;;10.95;5.55;;;21.10;65.10;;;;;;5031942;28;20025;-71
2021/08/17 12:47:18;;;;;;;10.35;5.65;;;21.10;65.00;;;;;;5033186;28;20029;-66
2021/08/17 12:49:48;;;;;;;10.85;5.82;;;21.10;65.10;;;;;;5019601;28;20029;-67
2021/08/17 12:52:22;;;;;;;11.60;5.97;;;21.10;65.20;;;;;;5023458;28;20048;-67